createdAt,value
2019-03-06T00:01:45.665Z,13.32
2019-03-06T00:04:19.699Z,13.22
2019-03-06T00:06:55.172Z,12.95
2019-03-06T00:09:30.860Z,12.35
2019-03-06T00:12:06.718Z,12.07
2019-03-06T00:14:43.129Z,14.58
2019-03-06T00:17:17.576Z,15.10
2019-03-06T00:19:53.440Z,13.03
2019-03-06T00:22:28.555Z,14.15
2019-03-06T00:25:03.711Z,14.83
2019-03-06T00:27:39.052Z,16.07
2019-03-06T00:30:15.026Z,15.83
2019-03-06T00:32:49.621Z,14.85
2019-03-06T00:35:26.697Z,13.93
2019-03-06T00:38:01.925Z,13.45
2019-03-06T00:40:42.155Z,14.45
2019-03-06T00:43:16.761Z,14.28
2019-03-06T00:45:51.508Z,12.30
2019-03-06T00:48:26.083Z,14.70
2019-03-06T00:51:02.802Z,15.25
2019-03-06T00:53:37.540Z,18.40
2019-03-06T00:56:13.998Z,17.07
2019-03-06T00:58:47.546Z,13.70
2019-03-06T01:01:22.049Z,15.18
2019-03-06T01:03:56.697Z,13.83
2019-03-06T01:06:31.315Z,15.48
2019-03-06T01:09:07.366Z,15.98
2019-03-06T01:11:41.203Z,13.25
2019-03-06T01:14:16.360Z,16.12
2019-03-06T01:16:51.213Z,16.00
2019-03-06T01:19:25.720Z,15.03
2019-03-06T01:22:00.734Z,12.45
2019-03-06T01:24:35.273Z,13.88
2019-03-06T01:27:10.010Z,13.10
2019-03-06T01:29:44.222Z,14.15
2019-03-06T01:32:19.440Z,15.20
2019-03-06T01:35:14.550Z,16.57
2019-03-06T01:38:04.965Z,17.23
2019-03-06T01:40:52.146Z,14.65
2019-03-06T01:43:36.607Z,16.62
2019-03-06T01:46:12.365Z,19.98
2019-03-06T01:48:50.481Z,17.25
2019-03-06T01:51:25.069Z,18.50
2019-03-06T01:54:00.361Z,16.55
2019-03-06T01:56:35.467Z,18.15
2019-03-06T01:59:10.705Z,19.12
2019-03-06T02:01:46.045Z,18.65
2019-03-06T02:04:21.633Z,19.37
2019-03-06T02:06:56.279Z,20.82
2019-03-06T02:09:32.646Z,21.75
2019-03-06T02:12:09.154Z,23.67
2019-03-06T02:14:43.424Z,20.97
2019-03-06T02:17:17.911Z,23.92
2019-03-06T02:19:52.913Z,20.52
2019-03-06T02:22:27.746Z,23.20
2019-03-06T02:25:02.897Z,23.55
2019-03-06T02:27:38.499Z,22.37
2019-03-06T02:30:18.192Z,23.05
2019-03-06T02:32:53.930Z,23.10
2019-03-06T02:35:29.498Z,26.23
2019-03-06T02:38:15.816Z,28.62
2019-03-06T02:40:49.899Z,28.65
2019-03-06T02:43:26.143Z,27.45
2019-03-06T02:46:01.743Z,26.23
2019-03-06T02:48:37.795Z,26.50
2019-03-06T02:51:14.248Z,22.70
2019-03-06T02:53:48.341Z,24.18
2019-03-06T02:56:22.939Z,22.37
2019-03-06T02:59:04.597Z,23.62
2019-03-06T03:01:57.119Z,25.52
2019-03-06T03:04:52.425Z,21.60
2019-03-06T03:07:28.844Z,21.37
2019-03-06T03:10:03.829Z,22.65
2019-03-06T03:12:38.488Z,22.27
2019-03-06T03:15:17.684Z,20.05
2019-03-06T03:17:53.168Z,18.40
2019-03-06T03:20:27.946Z,22.17
2019-03-06T03:23:04.728Z,25.35
2019-03-06T03:25:41.339Z,23.85
2019-03-06T03:28:15.699Z,21.97
2019-03-06T03:30:52.255Z,21.15
2019-03-06T03:33:30.468Z,24.87
2019-03-06T03:36:06.329Z,22.40
2019-03-06T03:38:41.168Z,20.95
2019-03-06T03:41:16.690Z,20.12
2019-03-06T03:43:52.870Z,22.20
2019-03-06T03:46:28.223Z,23.27
2019-03-06T03:49:03.630Z,20.48
2019-03-06T03:51:38.221Z,25.17
2019-03-06T03:54:14.784Z,19.87
2019-03-06T03:56:49.011Z,21.07
2019-03-06T03:59:27.788Z,20.32
2019-03-06T04:02:03.752Z,24.55
2019-03-06T04:04:39.172Z,21.73
2019-03-06T04:07:15.019Z,23.20
2019-03-06T04:09:52.840Z,36.83
2019-03-06T04:12:25.804Z,51.45
2019-03-06T04:15:02.045Z,42.83
2019-03-06T04:17:38.289Z,36.13
2019-03-06T04:20:15.876Z,28.12
2019-03-06T04:22:50.980Z,28.45
2019-03-06T04:25:25.524Z,25.60
2019-03-06T04:28:01.321Z,26.20
2019-03-06T04:30:38.025Z,22.42
2019-03-06T04:33:12.895Z,23.20
2019-03-06T04:35:49.135Z,24.47
2019-03-06T04:38:24.743Z,23.10
2019-03-06T04:41:03.173Z,20.27
2019-03-06T04:43:38.992Z,25.70
2019-03-06T04:46:13.147Z,35.83
2019-03-06T04:48:48.815Z,45.38
2019-03-06T04:51:25.004Z,47.62
2019-03-06T04:54:00.721Z,50.98
2019-03-06T04:56:35.546Z,46.60
2019-03-06T04:59:12.047Z,39.55
2019-03-06T05:01:47.375Z,33.58
2019-03-06T05:04:21.270Z,31.10
2019-03-06T05:06:57.655Z,32.28
2019-03-06T05:09:33.566Z,33.23
2019-03-06T05:12:09.721Z,37.63
2019-03-06T05:14:45.244Z,34.43
2019-03-06T05:17:45.850Z,35.20
2019-03-06T05:20:21.367Z,38.08
2019-03-06T05:22:56.301Z,36.95
2019-03-06T05:25:31.736Z,35.52
2019-03-06T05:28:06.625Z,32.85
2019-03-06T05:30:41.267Z,30.77
2019-03-06T05:33:15.691Z,36.48
2019-03-06T05:37:08.853Z,32.20
2019-03-06T05:39:43.501Z,32.48
2019-03-06T05:42:18.514Z,35.40
2019-03-06T05:44:52.921Z,35.68
2019-03-06T05:47:28.837Z,33.88
2019-03-06T05:50:02.068Z,37.20
2019-03-06T05:52:40.666Z,36.70
2019-03-06T05:55:15.930Z,36.50
2019-03-06T05:57:59.056Z,46.23
2019-03-06T06:00:35.820Z,41.85
2019-03-06T06:03:11.214Z,38.83
2019-03-06T06:05:46.429Z,39.80
2019-03-06T06:08:22.831Z,37.30
2019-03-06T06:10:58.883Z,36.90
2019-03-06T06:13:35.043Z,36.45
2019-03-06T06:16:13.402Z,33.98
2019-03-06T06:18:47.927Z,33.58
2019-03-06T06:21:42.226Z,33.73
2019-03-06T06:24:22.273Z,35.63
2019-03-06T06:26:56.784Z,39.73
2019-03-06T06:29:30.260Z,36.03
2019-03-06T06:32:05.332Z,42.25
2019-03-06T06:34:39.569Z,40.10
2019-03-06T06:37:13.921Z,51.20
2019-03-06T06:39:48.908Z,53.35
2019-03-06T06:42:24.791Z,60.10
2019-03-06T06:45:00.313Z,49.98
2019-03-06T06:47:35.472Z,45.35
2019-03-06T06:50:11.300Z,40.92
2019-03-06T06:53:53.129Z,40.67
2019-03-06T06:57:42.050Z,43.95
2019-03-06T07:01:11.573Z,41.60
2019-03-06T07:05:00.620Z,39.63
2019-03-06T07:07:59.499Z,39.27
2019-03-06T07:10:55.418Z,38.90
2019-03-06T07:13:46.143Z,37.17
2019-03-06T07:16:49.180Z,40.80
2019-03-06T07:19:53.363Z,38.73
2019-03-06T07:22:52.381Z,40.30
2019-03-06T07:25:46.361Z,37.38
2019-03-06T07:28:50.784Z,40.52
2019-03-06T07:31:47.450Z,37.50
2019-03-06T07:34:33.027Z,40.98
2019-03-06T07:37:13.589Z,43.80
2019-03-06T07:39:56.854Z,36.10
2019-03-06T07:42:45.366Z,32.80
2019-03-06T07:46:00.057Z,32.23
2019-03-06T07:49:05.238Z,33.65
2019-03-06T07:51:57.087Z,36.90
2019-03-06T07:54:51.687Z,33.05
2019-03-06T07:57:27.135Z,30.02
2019-03-06T08:00:00.312Z,34.38
2019-03-06T08:03:12.885Z,37.17
2019-03-06T08:05:56.553Z,35.28
2019-03-06T08:08:30.680Z,41.18
2019-03-06T08:11:06.239Z,33.60
2019-03-06T08:13:55.280Z,37.63
2019-03-06T08:16:39.349Z,41.73
2019-03-06T08:19:35.666Z,32.80
2019-03-06T08:22:17.093Z,31.97
2019-03-06T08:25:03.152Z,30.30
2019-03-06T08:27:38.263Z,33.15
2019-03-06T08:30:12.960Z,34.03
2019-03-06T08:32:49.120Z,34.67
2019-03-06T08:35:22.364Z,28.40
2019-03-06T08:37:55.925Z,29.87
2019-03-06T08:40:31.547Z,28.62
2019-03-06T08:43:05.598Z,29.57
2019-03-06T08:46:00.072Z,31.27
2019-03-06T08:48:42.789Z,29.37
2019-03-06T08:51:40.499Z,32.93
2019-03-06T08:54:35.749Z,34.43
2019-03-06T08:57:33.148Z,33.78
2019-03-06T09:00:37.234Z,26.87
2019-03-06T09:03:35.329Z,25.82
2019-03-06T09:06:37.919Z,29.55
2019-03-06T09:09:43.099Z,30.10
2019-03-06T09:12:24.159Z,27.58
2019-03-06T09:15:26.678Z,28.38
2019-03-06T09:18:14.380Z,26.95
2019-03-06T09:21:08.889Z,28.85
2019-03-06T09:24:05.626Z,23.65
2019-03-06T09:26:59.638Z,26.20
2019-03-06T09:29:44.679Z,27.62
2019-03-06T09:32:34.726Z,25.45
2019-03-06T09:35:24.778Z,26.90
2019-03-06T09:38:14.543Z,27.07
2019-03-06T09:41:11.108Z,23.60
2019-03-06T09:43:54.784Z,25.57
2019-03-06T09:46:53.567Z,25.77
2019-03-06T09:49:53.543Z,24.05
2019-03-06T09:52:44.188Z,22.42
2019-03-06T09:55:35.982Z,23.92
2019-03-06T09:58:25.990Z,28.17
2019-03-06T10:01:24.454Z,25.05
2019-03-06T10:04:29.490Z,26.45
2019-03-06T10:07:40.150Z,27.80
2019-03-06T10:10:46.379Z,23.60
2019-03-06T10:13:24.300Z,28.98
2019-03-06T10:16:14.504Z,24.20
2019-03-06T10:18:57.443Z,27.07
2019-03-06T10:21:31.858Z,27.07
2019-03-06T10:24:06.774Z,24.07
2019-03-06T10:26:41.625Z,20.52
2019-03-06T10:29:14.603Z,15.78
2019-03-06T10:31:48.081Z,16.73
2019-03-06T10:34:21.720Z,19.80
2019-03-06T10:36:56.341Z,20.50
2019-03-06T10:39:28.718Z,21.10
2019-03-06T10:42:01.780Z,17.82
2019-03-06T10:44:35.305Z,22.55
2019-03-06T10:47:10.376Z,17.50
2019-03-06T10:49:44.645Z,17.42
2019-03-06T10:52:17.621Z,16.40
2019-03-06T10:54:51.440Z,21.02
2019-03-06T10:57:26.059Z,17.27
2019-03-06T11:00:00.183Z,20.43
2019-03-06T11:02:34.906Z,17.62
2019-03-06T11:05:32.495Z,17.35
2019-03-06T11:08:07.519Z,16.57
2019-03-06T11:10:41.392Z,14.47
2019-03-06T11:13:15.645Z,14.33
2019-03-06T11:15:55.695Z,14.38
2019-03-06T11:18:25.074Z,16.17
2019-03-06T11:20:59.910Z,17.17
2019-03-06T11:23:34.366Z,16.02
2019-03-06T11:26:10.044Z,15.95
2019-03-06T11:28:45.909Z,15.28
2019-03-06T11:31:19.275Z,17.35
2019-03-06T11:33:51.983Z,16.35
2019-03-06T11:36:26.558Z,16.57
2019-03-06T11:38:59.894Z,13.30
2019-03-06T11:41:34.190Z,10.50
2019-03-06T11:44:08.603Z,11.93
2019-03-06T11:46:42.828Z,10.50
2019-03-06T11:49:16.658Z,10.63
2019-03-06T11:51:50.557Z,12.03
2019-03-06T11:54:24.960Z,11.75
2019-03-06T11:56:59.111Z,12.15
2019-03-06T11:59:33.042Z,15.15
2019-03-06T12:02:07.332Z,17.90
2019-03-06T12:04:41.911Z,22.35
2019-03-06T12:07:16.225Z,17.45
2019-03-06T12:09:50.578Z,12.23
2019-03-06T12:12:25.190Z,13.22
2019-03-06T12:14:59.775Z,14.65
2019-03-06T12:17:33.817Z,11.83
2019-03-06T12:20:08.566Z,13.83
2019-03-06T12:22:42.957Z,14.65
2019-03-06T12:25:18.326Z,14.47
2019-03-06T12:27:51.754Z,11.53
2019-03-06T12:30:26.893Z,12.98
2019-03-06T12:33:01.531Z,11.78
2019-03-06T12:35:38.641Z,16.07
2019-03-06T12:38:12.023Z,10.15
2019-03-06T12:40:46.229Z,11.25
2019-03-06T12:43:20.096Z,15.32
2019-03-06T12:46:28.315Z,10.82
2019-03-06T12:49:06.318Z,9.40
2019-03-06T12:51:41.341Z,12.00
2019-03-06T12:54:16.748Z,11.80
2019-03-06T12:56:52.208Z,13.45
2019-03-06T12:59:25.155Z,11.63
2019-03-06T13:01:58.371Z,10.80
2019-03-06T13:04:31.247Z,11.40
2019-03-06T13:07:04.840Z,7.97
2019-03-06T13:09:39.807Z,9.50
2019-03-06T13:12:13.941Z,9.03
2019-03-06T13:14:47.545Z,10.28
2019-03-06T13:17:21.065Z,9.93
2019-03-06T13:19:59.613Z,11.22
2019-03-06T13:22:33.157Z,11.35
2019-03-06T13:25:08.204Z,9.53
2019-03-06T13:27:42.235Z,9.43
2019-03-06T13:30:16.790Z,14.45
2019-03-06T13:33:14.250Z,13.25
2019-03-06T13:35:46.855Z,11.80
2019-03-06T13:38:21.553Z,12.20
2019-03-06T13:40:55.256Z,11.68
2019-03-06T13:43:46.471Z,18.37
2019-03-06T13:46:20.481Z,12.33
2019-03-06T13:48:53.848Z,14.90
2019-03-06T13:51:27.118Z,16.30
2019-03-06T13:54:00.097Z,26.00
2019-03-06T13:56:34.330Z,16.87
2019-03-06T13:59:27.077Z,15.93
2019-03-06T14:09:39.021Z,15.00
2019-03-06T14:12:15.366Z,18.52
2019-03-06T14:14:50.483Z,14.30
2019-03-06T14:17:26.762Z,23.60
2019-03-06T14:20:01.788Z,16.25
2019-03-06T14:22:37.420Z,14.13
2019-03-06T14:25:13.119Z,15.68
2019-03-06T14:27:48.746Z,13.53
2019-03-06T14:30:23.559Z,10.40
2019-03-06T14:32:57.741Z,11.75
2019-03-06T14:35:33.827Z,12.37
2019-03-06T14:38:10.652Z,25.00
2019-03-06T14:40:48.320Z,32.45
2019-03-06T14:43:22.707Z,22.62
2019-03-06T14:46:03.591Z,15.75
2019-03-06T14:48:38.462Z,16.00
2019-03-06T14:51:49.834Z,17.57
2019-03-06T14:54:04.030Z,16.40
2019-03-06T14:56:39.417Z,14.63
2019-03-06T14:59:16.530Z,12.75
2019-03-06T15:01:51.191Z,13.32
2019-03-06T15:04:24.668Z,20.40
2019-03-06T15:06:58.012Z,20.88
2019-03-06T15:09:31.788Z,22.80
2019-03-06T15:12:05.537Z,24.55
2019-03-06T15:14:40.864Z,22.87
2019-03-06T15:17:14.813Z,26.87
2019-03-06T15:19:49.774Z,25.75
2019-03-06T15:22:24.740Z,22.80
2019-03-06T15:24:59.271Z,24.07
2019-03-06T15:27:33.774Z,27.25
2019-03-06T15:30:09.279Z,27.55
2019-03-06T15:32:43.959Z,26.37
2019-03-06T15:35:20.323Z,23.40
2019-03-06T15:37:55.477Z,23.98
2019-03-06T15:40:32.211Z,28.47
2019-03-06T15:43:08.222Z,20.60
2019-03-06T15:45:44.365Z,17.32
2019-03-06T15:48:17.915Z,21.20
2019-03-06T15:50:51.696Z,17.27
2019-03-06T15:53:26.232Z,19.98
2019-03-06T15:56:03.647Z,19.17
2019-03-06T15:58:38.395Z,20.95
2019-03-06T16:01:13.145Z,18.15
2019-03-06T16:03:47.791Z,28.15
2019-03-06T16:06:22.140Z,24.23
2019-03-06T16:08:56.845Z,22.65
2019-03-06T16:11:32.595Z,29.07
2019-03-06T16:14:09.063Z,36.25
2019-03-06T16:16:46.127Z,40.35
2019-03-06T16:19:20.667Z,40.65
2019-03-06T16:21:57.663Z,43.28
2019-03-06T16:24:33.206Z,36.88
2019-03-06T16:27:09.313Z,39.08
2019-03-06T16:29:48.507Z,43.17
2019-03-06T16:32:24.910Z,42.78
2019-03-06T16:35:00.595Z,51.15
2019-03-06T16:37:35.823Z,50.67
2019-03-06T16:40:15.974Z,48.85
2019-03-06T16:42:52.436Z,52.30
2019-03-06T16:45:30.256Z,50.08
2019-03-06T16:48:06.623Z,51.23
2019-03-06T16:50:41.403Z,51.73
2019-03-06T16:53:17.696Z,46.85
2019-03-06T16:55:53.163Z,47.08
2019-03-06T16:58:27.588Z,48.55
2019-03-06T17:01:07.106Z,47.27
2019-03-06T17:03:41.700Z,56.92
2019-03-06T17:06:17.354Z,52.78
2019-03-06T17:08:52.547Z,51.90
2019-03-06T17:11:29.876Z,58.45
2019-03-06T17:14:05.287Z,56.88
2019-03-06T17:16:39.623Z,57.17
2019-03-06T17:19:15.655Z,61.28
2019-03-06T17:21:52.032Z,55.25
2019-03-06T17:24:28.281Z,62.95
2019-03-06T17:27:03.205Z,70.28
2019-03-06T17:29:38.261Z,66.28
2019-03-06T17:32:13.784Z,59.40
2019-03-06T17:34:49.336Z,59.23
2019-03-06T17:37:23.573Z,53.33
2019-03-06T17:39:58.068Z,47.98
2019-03-06T17:42:33.313Z,50.17
2019-03-06T17:45:09.156Z,54.98
2019-03-06T17:47:44.733Z,57.55
2019-03-06T17:50:20.568Z,51.73
2019-03-06T17:52:55.719Z,62.98
2019-03-06T17:55:30.946Z,76.40
2019-03-06T17:58:06.062Z,75.47
2019-03-06T18:00:56.004Z,76.97
2019-03-06T18:03:45.557Z,67.12
2019-03-06T18:06:21.834Z,67.17
2019-03-06T18:08:56.145Z,54.00
2019-03-06T18:11:33.030Z,57.75
2019-03-06T18:14:08.764Z,46.55
2019-03-06T18:16:44.212Z,41.45
2019-03-06T18:19:18.599Z,40.67
2019-03-06T18:21:52.606Z,42.85
2019-03-06T18:24:26.709Z,42.25
2019-03-06T18:27:01.895Z,47.17
2019-03-06T18:29:36.486Z,47.70
2019-03-06T18:32:11.780Z,46.98
2019-03-06T18:34:46.367Z,41.75
2019-03-06T18:37:21.248Z,41.30
2019-03-06T18:39:56.748Z,42.45
2019-03-06T18:42:32.533Z,42.85
2019-03-06T18:45:08.928Z,53.17
2019-03-06T18:47:43.726Z,48.58
2019-03-06T18:50:20.032Z,50.50
2019-03-06T18:52:55.859Z,55.95
2019-03-06T18:55:29.873Z,57.78
2019-03-06T18:58:04.877Z,61.05
2019-03-06T19:00:39.142Z,72.67
2019-03-06T19:03:16.418Z,60.65
2019-03-06T19:05:51.673Z,53.78
2019-03-06T19:08:31.207Z,70.40
2019-03-06T19:11:03.947Z,63.08
2019-03-06T19:13:38.110Z,62.98
2019-03-06T19:16:13.107Z,61.65
2019-03-06T19:18:49.133Z,59.23
2019-03-06T19:21:23.022Z,50.30
2019-03-06T19:23:56.754Z,54.58
2019-03-06T19:26:30.850Z,54.90
2019-03-06T19:29:06.019Z,59.73
2019-03-06T19:31:40.899Z,63.30
2019-03-06T19:34:15.421Z,71.65
2019-03-06T19:36:50.910Z,63.08
2019-03-06T19:39:25.672Z,59.10
2019-03-06T19:42:00.013Z,54.95
2019-03-06T19:44:35.462Z,54.00
2019-03-06T19:47:10.451Z,48.13
2019-03-06T19:49:45.839Z,55.43
2019-03-06T19:52:20.437Z,49.83
2019-03-06T19:54:55.372Z,58.65
2019-03-06T19:57:32.438Z,55.45
2019-03-06T20:00:10.165Z,49.73
2019-03-06T20:02:44.565Z,45.45
2019-03-06T20:05:18.635Z,51.23
2019-03-06T20:07:54.478Z,54.50
2019-03-06T20:10:29.918Z,50.78
2019-03-06T20:13:08.572Z,46.85
2019-03-06T20:15:43.058Z,52.67
2019-03-06T20:18:21.994Z,53.45
2019-03-06T20:20:58.377Z,60.55
2019-03-06T20:23:36.966Z,55.55
2019-03-06T20:26:14.690Z,48.60
2019-03-06T20:28:48.542Z,48.58
2019-03-06T20:31:24.197Z,48.40
2019-03-06T20:33:59.748Z,53.80
2019-03-06T20:36:33.194Z,50.48
2019-03-06T20:39:09.847Z,48.17
2019-03-06T20:41:45.370Z,45.35
2019-03-06T20:44:21.056Z,47.78
2019-03-06T20:46:57.980Z,44.42
2019-03-06T20:49:33.559Z,42.30
2019-03-06T20:52:08.837Z,45.12
2019-03-06T20:54:43.987Z,45.15
2019-03-06T20:57:18.488Z,44.48
2019-03-06T20:59:53.045Z,51.02
2019-03-06T21:02:28.089Z,53.42
2019-03-06T21:05:02.830Z,53.00
2019-03-06T21:07:44.850Z,50.58
2019-03-06T21:10:16.792Z,47.55
2019-03-06T21:12:52.407Z,52.93
2019-03-06T21:15:27.543Z,55.08
2019-03-06T21:18:02.515Z,55.65
2019-03-06T21:20:37.828Z,59.27
2019-03-06T21:23:11.166Z,57.08
2019-03-06T21:25:45.575Z,56.60
2019-03-06T21:28:20.007Z,54.30
2019-03-06T21:30:55.074Z,66.15
2019-03-06T21:33:28.553Z,68.65
2019-03-06T21:36:03.640Z,68.12
2019-03-06T21:38:38.708Z,68.52
2019-03-06T21:41:15.249Z,68.07
2019-03-06T21:43:50.614Z,73.17
2019-03-06T21:46:24.936Z,74.32
2019-03-06T21:48:59.476Z,77.27
2019-03-06T21:51:32.518Z,66.60
2019-03-06T21:54:07.025Z,63.95
2019-03-06T21:56:41.050Z,70.32
2019-03-06T21:59:14.005Z,72.55
2019-03-06T22:01:48.015Z,72.95
2019-03-06T22:04:21.417Z,81.17
2019-03-06T22:06:55.885Z,100.50
2019-03-06T22:09:30.598Z,97.17
2019-03-06T22:12:05.902Z,85.17
2019-03-06T22:14:40.970Z,93.95
2019-03-06T22:17:15.046Z,83.97
2019-03-06T22:19:50.332Z,88.37
2019-03-06T22:22:24.515Z,81.87
2019-03-06T22:24:59.570Z,79.27
2019-03-06T22:27:34.898Z,79.03
2019-03-06T22:30:12.140Z,83.45
2019-03-06T22:32:47.162Z,81.22
2019-03-06T22:35:22.373Z,80.10
2019-03-06T22:37:57.438Z,80.70
2019-03-06T22:40:32.633Z,95.28
2019-03-06T22:43:07.085Z,89.97
2019-03-06T22:45:41.427Z,86.17
2019-03-06T22:48:16.918Z,96.47
2019-03-06T22:50:51.571Z,94.85
2019-03-06T22:53:25.924Z,94.28
2019-03-06T22:56:01.019Z,89.32
2019-03-06T22:58:35.548Z,95.05
2019-03-06T23:01:33.459Z,99.77
2019-03-06T23:04:08.633Z,99.65
2019-03-06T23:06:43.433Z,85.53
2019-03-06T23:09:17.447Z,92.33
2019-03-06T23:11:51.571Z,88.22
2019-03-06T23:14:25.680Z,87.70
2019-03-06T23:17:01.261Z,85.10
2019-03-06T23:19:36.845Z,74.22
2019-03-06T23:22:10.894Z,74.45
2019-03-06T23:24:46.336Z,69.87
2019-03-06T23:27:21.514Z,66.15
2019-03-06T23:29:57.116Z,72.65
2019-03-06T23:32:32.043Z,68.17
2019-03-06T23:35:06.942Z,64.67
2019-03-06T23:37:41.191Z,58.75
2019-03-06T23:40:15.749Z,58.75
2019-03-06T23:42:50.292Z,54.08
2019-03-06T23:45:24.397Z,55.67
2019-03-06T23:47:59.283Z,65.30
2019-03-06T23:50:33.414Z,60.63
2019-03-06T23:53:09.988Z,48.52
2019-03-06T23:55:44.856Z,56.68
2019-03-06T23:58:19.721Z,51.35
